createdAt,value
2023-05-19T00:01:25.006Z,4.65
2023-05-19T00:03:54.715Z,4.18
2023-05-19T00:06:33.599Z,3.63
2023-05-19T00:09:07.226Z,3.55
2023-05-19T00:11:39.232Z,3.25
2023-05-19T00:14:08.788Z,3.42
2023-05-19T00:16:37.938Z,4.10
2023-05-19T00:19:06.547Z,3.50
2023-05-19T00:21:33.493Z,3.95
2023-05-19T00:24:00.605Z,3.90
2023-05-19T00:26:29.146Z,3.88
2023-05-19T00:29:03.344Z,3.63
2023-05-19T00:31:31.628Z,3.92
2023-05-19T00:34:02.052Z,3.67
2023-05-19T00:36:28.942Z,3.30
2023-05-19T00:38:56.499Z,3.22
2023-05-19T00:41:23.761Z,3.63
2023-05-19T00:43:54.344Z,3.53
2023-05-19T00:46:21.489Z,3.30
2023-05-19T00:48:48.739Z,3.38
2023-05-19T00:51:17.268Z,3.50
2023-05-19T00:53:49.147Z,3.95
2023-05-19T00:56:18.753Z,3.85
2023-05-19T00:58:46.076Z,4.18
2023-05-19T01:01:14.629Z,4.13
2023-05-19T01:03:44.491Z,3.58
2023-05-19T01:06:12.269Z,4.30
2023-05-19T01:08:39.532Z,3.92
2023-05-19T01:11:07.594Z,4.15
2023-05-19T01:13:36.729Z,4.00
2023-05-19T01:19:30.748Z,4.22
2023-05-19T01:22:13.106Z,4.57
2023-05-19T01:24:45.034Z,3.60
2023-05-19T01:27:21.029Z,5.43
2023-05-19T01:29:56.975Z,4.55
2023-05-19T01:32:24.541Z,5.60
2023-05-19T01:34:53.786Z,5.10
2023-05-19T01:37:21.831Z,5.85
2023-05-19T01:39:50.437Z,6.55
2023-05-19T01:42:18.018Z,4.55
2023-05-19T01:44:46.408Z,5.32
2023-05-19T01:47:14.400Z,6.03
2023-05-19T01:49:41.674Z,4.95
2023-05-19T01:52:08.843Z,5.07
2023-05-19T01:54:35.925Z,5.03
2023-05-19T01:57:32.886Z,5.22
2023-05-19T02:00:21.466Z,4.38
2023-05-19T02:03:00.907Z,3.85
2023-05-19T02:06:20.523Z,4.82
2023-05-19T02:08:57.221Z,5.45
2023-05-19T02:11:35.799Z,4.97
2023-05-19T02:14:27.270Z,4.63
2023-05-19T02:16:57.329Z,5.18
2023-05-19T02:19:32.858Z,4.72
2023-05-19T02:22:00.148Z,4.70
2023-05-19T02:24:28.285Z,4.28
2023-05-19T02:26:55.652Z,5.05
2023-05-19T02:29:22.862Z,4.60
2023-05-19T02:31:53.058Z,5.20
2023-05-19T02:34:20.068Z,4.97
2023-05-19T02:36:50.226Z,4.93
2023-05-19T02:39:17.117Z,5.78
2023-05-19T02:41:44.419Z,5.80
2023-05-19T02:44:11.214Z,5.57
2023-05-19T02:46:41.262Z,5.07
2023-05-19T02:49:08.665Z,5.72
2023-05-19T02:51:35.827Z,5.18
2023-05-19T02:54:02.739Z,5.72
2023-05-19T02:56:32.541Z,5.20
2023-05-19T02:58:59.385Z,5.30
2023-05-19T03:01:26.559Z,5.40
2023-05-19T03:03:53.487Z,5.90
2023-05-19T03:06:23.371Z,5.47
2023-05-19T03:08:50.937Z,5.53
2023-05-19T03:11:18.078Z,5.53
2023-05-19T03:13:44.921Z,6.55
2023-05-19T03:16:12.661Z,5.30
2023-05-19T03:18:39.602Z,6.22
2023-05-19T03:21:09.341Z,5.93
2023-05-19T03:23:36.385Z,6.65
2023-05-19T03:26:03.518Z,5.30
2023-05-19T03:28:31.739Z,5.75
2023-05-19T03:31:01.438Z,5.88
2023-05-19T03:33:29.911Z,5.70
2023-05-19T03:35:57.766Z,5.60
2023-05-19T03:38:27.476Z,5.07
2023-05-19T03:40:57.129Z,6.25
2023-05-19T03:43:23.922Z,6.47
2023-05-19T03:45:51.116Z,6.65
2023-05-19T03:48:19.742Z,5.78
2023-05-19T03:50:48.672Z,6.63
2023-05-19T03:53:15.769Z,6.07
2023-05-19T03:55:44.497Z,6.97
2023-05-19T03:58:16.989Z,6.30
2023-05-19T04:00:46.950Z,6.13
2023-05-19T04:03:14.180Z,6.53
2023-05-19T04:05:41.445Z,6.80
2023-05-19T04:08:10.974Z,6.80
2023-05-19T04:10:38.041Z,6.18
2023-05-19T04:13:04.816Z,6.13
2023-05-19T04:15:32.962Z,6.15
2023-05-19T04:17:59.872Z,5.85
2023-05-19T04:20:26.994Z,6.35
2023-05-19T04:22:54.104Z,6.95
2023-05-19T04:25:21.227Z,6.55
2023-05-19T04:27:48.898Z,6.97
2023-05-19T04:30:22.450Z,5.70
2023-05-19T04:32:50.993Z,5.85
2023-05-19T04:35:19.595Z,6.15
2023-05-19T04:37:46.909Z,6.45
2023-05-19T04:40:15.949Z,6.45
2023-05-19T04:42:46.096Z,6.47
2023-05-19T04:45:14.154Z,6.25
2023-05-19T04:47:44.461Z,6.68
2023-05-19T04:50:11.686Z,5.95
2023-05-19T04:52:38.496Z,6.13
2023-05-19T04:55:07.024Z,6.32
2023-05-19T04:57:34.169Z,8.13
2023-05-19T05:00:01.332Z,7.15
2023-05-19T05:02:28.291Z,7.00
2023-05-19T05:04:56.759Z,7.38
2023-05-19T05:07:23.879Z,6.47
2023-05-19T05:09:51.126Z,6.47
2023-05-19T05:12:18.914Z,6.88
2023-05-19T05:14:46.413Z,7.30
2023-05-19T05:17:13.861Z,8.18
2023-05-19T05:19:41.335Z,7.13
2023-05-19T05:22:08.980Z,8.05
2023-05-19T05:24:36.487Z,8.25
2023-05-19T05:27:04.502Z,8.07
2023-05-19T05:29:31.634Z,8.90
2023-05-19T05:31:58.532Z,9.60
2023-05-19T05:34:26.081Z,8.38
2023-05-19T05:36:55.930Z,9.38
2023-05-19T05:39:23.098Z,9.10
2023-05-19T05:41:49.905Z,9.18
2023-05-19T05:44:17.046Z,10.75
2023-05-19T05:46:45.199Z,9.82
2023-05-19T05:49:20.507Z,8.73
2023-05-19T05:52:01.558Z,8.77
2023-05-19T05:54:35.630Z,8.63
2023-05-19T05:57:03.446Z,8.77
2023-05-19T05:59:30.955Z,9.48
2023-05-19T06:01:57.833Z,9.98
2023-05-19T06:04:25.914Z,9.48
2023-05-19T06:06:52.736Z,9.63
2023-05-19T06:09:19.880Z,9.95
2023-05-19T06:11:49.811Z,9.95
2023-05-19T06:14:19.519Z,13.00
2023-05-19T06:16:48.099Z,10.93
2023-05-19T06:19:15.418Z,10.27
2023-05-19T06:21:43.269Z,10.27
2023-05-19T06:24:11.778Z,11.00
2023-05-19T06:26:38.861Z,9.38
2023-05-19T06:29:05.912Z,10.13
2023-05-19T06:31:35.680Z,8.85
2023-05-19T06:34:06.003Z,8.98
2023-05-19T06:36:35.816Z,9.73
2023-05-19T06:39:03.043Z,9.63
2023-05-19T06:41:29.909Z,9.25
2023-05-19T06:43:57.053Z,7.70
2023-05-19T06:46:24.119Z,8.98
2023-05-19T06:48:51.595Z,8.27
2023-05-19T06:51:21.815Z,7.13
2023-05-19T06:53:51.765Z,7.32
2023-05-19T06:56:19.140Z,7.85
2023-05-19T06:58:46.352Z,7.72
2023-05-19T07:01:13.232Z,7.97
2023-05-19T07:03:40.462Z,7.20
2023-05-19T07:06:08.498Z,8.80
2023-05-19T07:08:37.228Z,10.32
2023-05-19T07:11:04.354Z,9.02
2023-05-19T07:13:32.962Z,9.40
2023-05-19T07:15:59.927Z,8.98
2023-05-19T07:18:27.076Z,8.15
2023-05-19T07:20:53.950Z,8.90
2023-05-19T07:23:23.838Z,7.65
2023-05-19T07:25:56.112Z,9.25
2023-05-19T07:28:23.390Z,8.10
2023-05-19T07:30:50.717Z,8.18
2023-05-19T07:33:19.927Z,7.10
2023-05-19T07:35:47.156Z,8.10
2023-05-19T07:38:16.464Z,7.28
2023-05-19T07:40:43.261Z,7.35
2023-05-19T07:43:11.396Z,5.47
2023-05-19T07:45:38.690Z,4.75
2023-05-19T07:48:07.057Z,5.22
2023-05-19T07:50:34.084Z,5.93
2023-05-19T07:53:01.360Z,6.53
2023-05-19T07:55:28.189Z,4.80
2023-05-19T07:57:56.198Z,5.68
2023-05-19T08:00:23.205Z,5.22
2023-05-19T08:02:51.723Z,5.20
2023-05-19T08:05:18.962Z,4.85
2023-05-19T08:07:46.041Z,4.68
2023-05-19T08:10:16.146Z,4.15
2023-05-19T08:12:44.202Z,4.25
2023-05-19T08:15:13.870Z,4.32
2023-05-19T08:17:41.048Z,3.60
2023-05-19T08:20:10.354Z,3.70
2023-05-19T08:22:37.496Z,3.55
2023-05-19T08:25:05.569Z,3.60
2023-05-19T08:27:33.012Z,3.47
2023-05-19T08:29:59.925Z,3.33
2023-05-19T08:32:27.205Z,3.30
2023-05-19T08:34:54.083Z,3.70
2023-05-19T08:37:21.204Z,3.97
2023-05-19T08:39:47.980Z,2.95
2023-05-19T08:42:15.208Z,3.60
2023-05-19T08:44:44.043Z,3.80
2023-05-19T08:47:14.533Z,3.83
2023-05-19T08:49:46.464Z,3.45
2023-05-19T08:52:30.920Z,3.60
2023-05-19T08:55:06.239Z,3.65
2023-05-19T08:57:34.204Z,3.75
2023-05-19T09:00:02.435Z,3.90
2023-05-19T09:02:29.817Z,4.05
2023-05-19T09:04:57.773Z,3.75
2023-05-19T09:07:31.178Z,3.72
2023-05-19T09:09:58.093Z,3.50
2023-05-19T09:12:25.540Z,3.42
2023-05-19T09:14:53.877Z,3.85
2023-05-19T09:17:21.417Z,3.88
2023-05-19T09:19:49.321Z,4.28
2023-05-19T09:22:19.211Z,3.58
2023-05-19T09:24:47.647Z,3.78
2023-05-19T09:27:24.872Z,4.40
2023-05-19T09:29:51.652Z,3.97
2023-05-19T09:32:28.933Z,3.90
2023-05-19T09:34:56.061Z,3.70
2023-05-19T09:37:24.781Z,3.75
2023-05-19T09:39:52.960Z,4.25
2023-05-19T09:42:30.172Z,4.38
2023-05-19T09:45:01.974Z,4.38
2023-05-19T09:47:38.357Z,3.92
2023-05-19T09:50:08.588Z,4.03
2023-05-19T09:52:39.713Z,3.97
2023-05-19T09:55:10.529Z,4.05
2023-05-19T09:57:38.373Z,3.78
2023-05-19T10:00:17.184Z,3.92
2023-05-19T10:02:46.794Z,3.05
2023-05-19T10:05:17.149Z,3.65
2023-05-19T10:07:45.868Z,3.75
2023-05-19T10:10:17.083Z,3.80
2023-05-19T10:12:44.541Z,4.25
2023-05-19T10:15:23.148Z,4.32
2023-05-19T10:17:51.382Z,3.40
2023-05-19T10:20:18.892Z,3.33
2023-05-19T10:22:46.788Z,3.88
2023-05-19T10:25:18.705Z,3.40
2023-05-19T10:28:17.175Z,3.58
2023-05-19T10:30:53.254Z,3.30
2023-05-19T10:33:24.591Z,3.30
2023-05-19T10:36:02.703Z,2.92
2023-05-19T10:38:53.460Z,3.03
2023-05-19T10:41:55.804Z,3.03
2023-05-19T10:44:33.149Z,2.67
2023-05-19T10:47:00.038Z,3.15
2023-05-19T10:49:27.362Z,2.80
2023-05-19T10:51:57.511Z,2.90
2023-05-19T10:54:43.829Z,2.63
2023-05-19T10:57:15.362Z,2.65
2023-05-19T10:59:45.377Z,2.75
2023-05-19T11:02:47.552Z,2.60
2023-05-19T11:05:18.286Z,3.25
2023-05-19T11:07:56.787Z,2.58
2023-05-19T11:10:25.794Z,2.90
2023-05-19T11:12:52.746Z,2.50
2023-05-19T11:15:27.825Z,3.30
2023-05-19T11:17:57.601Z,3.22
2023-05-19T11:20:25.211Z,2.70
2023-05-19T11:23:04.298Z,2.47
2023-05-19T11:25:53.532Z,2.60
2023-05-19T11:28:26.734Z,2.70
2023-05-19T11:30:55.227Z,2.72
2023-05-19T11:33:27.138Z,2.40
2023-05-19T11:35:59.509Z,2.57
2023-05-19T11:38:30.156Z,2.78
2023-05-19T11:40:57.629Z,3.00
2023-05-19T11:43:25.852Z,2.53
2023-05-19T11:45:56.422Z,2.88
2023-05-19T11:48:26.373Z,3.17
2023-05-19T11:50:53.729Z,2.70
2023-05-19T11:53:21.186Z,2.33
2023-05-19T11:55:49.393Z,2.25
2023-05-19T11:58:17.314Z,2.83
2023-05-19T12:00:47.715Z,2.72
2023-05-19T12:03:22.130Z,2.42
2023-05-19T12:05:49.813Z,2.63
2023-05-19T12:08:19.316Z,2.60
2023-05-19T12:10:52.242Z,3.20
2023-05-19T12:13:19.691Z,3.03
2023-05-19T12:15:46.986Z,2.92
2023-05-19T12:18:14.324Z,2.83
2023-05-19T12:20:41.664Z,2.63
2023-05-19T12:23:09.051Z,3.15
2023-05-19T12:25:36.352Z,2.80
2023-05-19T12:28:03.840Z,2.53
2023-05-19T12:30:32.894Z,2.60
2023-05-19T12:33:01.503Z,2.60
2023-05-19T12:35:32.150Z,2.50
2023-05-19T12:38:03.772Z,2.45
2023-05-19T12:40:31.166Z,2.78
2023-05-19T12:42:59.525Z,2.85
2023-05-19T12:45:28.951Z,2.35
2023-05-19T12:47:56.665Z,2.40
2023-05-19T12:50:31.159Z,2.80
2023-05-19T12:52:59.946Z,2.30
2023-05-19T12:55:27.151Z,2.65
2023-05-19T12:57:57.150Z,2.65
2023-05-19T13:00:28.236Z,2.65
2023-05-19T13:02:59.746Z,2.42
2023-05-19T13:05:28.336Z,2.38
2023-05-19T13:07:59.028Z,2.10
2023-05-19T13:10:29.475Z,2.13
2023-05-19T13:12:57.287Z,2.47
2023-05-19T13:15:26.383Z,2.38
2023-05-19T13:17:54.528Z,2.20
2023-05-19T13:20:22.063Z,2.65
2023-05-19T13:22:49.461Z,2.15
2023-05-19T13:25:20.141Z,2.03
2023-05-19T13:27:48.205Z,2.20
2023-05-19T13:30:16.233Z,1.90
2023-05-19T13:32:43.075Z,2.40
2023-05-19T13:35:11.099Z,3.53
2023-05-19T13:37:39.493Z,2.50
2023-05-19T13:40:07.474Z,3.20
2023-05-19T13:42:35.150Z,2.08
2023-05-19T13:45:02.805Z,2.83
2023-05-19T13:47:30.041Z,2.30
2023-05-19T13:49:57.634Z,2.05
2023-05-19T13:52:24.659Z,2.53
2023-05-19T13:54:54.490Z,2.80
2023-05-19T13:57:21.430Z,2.08
2023-05-19T14:00:01.873Z,1.90
2023-05-19T14:02:30.156Z,1.98
2023-05-19T14:04:57.819Z,2.72
2023-05-19T14:07:25.740Z,2.30
2023-05-19T14:09:53.162Z,1.80
2023-05-19T14:12:23.167Z,2.30
2023-05-19T14:14:52.446Z,1.88
2023-05-19T14:17:19.230Z,2.58
2023-05-19T14:19:46.343Z,2.10
2023-05-19T14:22:13.469Z,2.20
2023-05-19T14:24:41.599Z,2.22
2023-05-19T14:27:08.461Z,2.30
2023-05-19T14:29:35.691Z,2.20
2023-05-19T14:32:03.444Z,2.50
2023-05-19T14:34:35.277Z,2.30
2023-05-19T14:37:02.750Z,2.30
2023-05-19T14:39:31.364Z,2.40
2023-05-19T14:41:59.682Z,2.28
2023-05-19T14:44:31.951Z,1.83
2023-05-19T14:47:00.853Z,2.45
2023-05-19T14:49:30.502Z,2.10
2023-05-19T14:51:57.293Z,2.08
2023-05-19T14:54:24.441Z,2.35
2023-05-19T14:56:51.421Z,2.30
2023-05-19T14:59:18.567Z,2.40
2023-05-19T15:01:45.576Z,2.17
2023-05-19T15:04:12.939Z,2.35
2023-05-19T15:06:39.844Z,2.53
2023-05-19T15:09:07.006Z,2.35
2023-05-19T15:11:36.860Z,2.10
2023-05-19T15:14:04.399Z,2.28
2023-05-19T15:16:31.285Z,2.42
2023-05-19T15:18:58.387Z,2.42
2023-05-19T15:21:25.180Z,2.00
2023-05-19T15:23:52.310Z,2.17
2023-05-19T15:26:19.183Z,2.28
2023-05-19T15:28:47.311Z,2.10
2023-05-19T15:31:14.177Z,2.58
2023-05-19T15:33:41.427Z,2.60
2023-05-19T15:36:11.238Z,2.40
2023-05-19T15:38:39.350Z,2.10
2023-05-19T15:41:08.992Z,2.47
2023-05-19T15:43:36.147Z,2.55
2023-05-19T15:46:04.924Z,2.40
2023-05-19T15:48:32.442Z,2.03
2023-05-19T15:51:00.620Z,2.47
2023-05-19T15:53:28.080Z,1.85
2023-05-19T15:55:54.988Z,2.15
2023-05-19T15:58:22.117Z,2.40
2023-05-19T16:00:49.141Z,2.70
2023-05-19T16:03:16.319Z,2.50
2023-05-19T16:05:43.246Z,2.50
2023-05-19T16:08:10.430Z,2.60
2023-05-19T16:10:37.288Z,2.15
2023-05-19T16:13:04.779Z,2.35
2023-05-19T16:15:31.651Z,3.05
2023-05-19T16:18:00.257Z,2.50
2023-05-19T16:20:29.675Z,2.42
2023-05-19T16:22:59.077Z,2.28
2023-05-19T16:25:26.101Z,2.60
2023-05-19T16:27:53.241Z,2.70
2023-05-19T16:30:20.271Z,2.83
2023-05-19T16:32:47.429Z,2.67
2023-05-19T16:35:14.611Z,3.08
2023-05-19T16:37:41.741Z,2.88
2023-05-19T16:40:09.068Z,3.22
2023-05-19T16:42:36.269Z,3.05
2023-05-19T16:45:03.242Z,3.45
2023-05-19T16:47:30.465Z,3.17
2023-05-19T16:49:57.420Z,3.03
2023-05-19T16:52:24.681Z,3.80
2023-05-19T16:54:53.557Z,3.08
2023-05-19T16:57:21.082Z,2.85
2023-05-19T16:59:49.560Z,3.35
2023-05-19T17:02:16.821Z,2.50
2023-05-19T17:04:45.331Z,2.90
2023-05-19T17:07:16.386Z,2.88
2023-05-19T17:09:43.982Z,3.00
2023-05-19T17:12:11.291Z,3.30
2023-05-19T17:14:38.221Z,3.08
2023-05-19T17:17:05.528Z,3.20
2023-05-19T17:19:35.792Z,3.03
2023-05-19T17:22:03.910Z,3.60
2023-05-19T17:24:33.191Z,3.03
2023-05-19T17:27:00.940Z,3.25
2023-05-19T17:29:28.010Z,3.13
2023-05-19T17:31:55.522Z,3.50
2023-05-19T17:34:22.433Z,3.65
2023-05-19T17:36:51.757Z,3.00
2023-05-19T17:39:21.657Z,3.58
2023-05-19T17:41:48.830Z,3.08
2023-05-19T17:44:15.761Z,3.33
2023-05-19T17:46:42.900Z,3.20
2023-05-19T17:49:10.840Z,3.55
2023-05-19T17:51:41.296Z,3.75
2023-05-19T17:54:08.423Z,3.47
2023-05-19T17:56:41.571Z,3.78
2023-05-19T17:59:08.850Z,3.92
2023-05-19T18:01:36.247Z,4.53
2023-05-19T18:04:03.739Z,3.00
2023-05-19T18:06:32.260Z,3.42
2023-05-19T18:09:02.130Z,3.75
2023-05-19T18:11:29.345Z,3.83
2023-05-19T18:13:57.292Z,3.75
2023-05-19T18:16:25.662Z,3.58
2023-05-19T18:18:53.002Z,4.28
2023-05-19T18:21:20.201Z,4.43
2023-05-19T18:23:50.982Z,4.47
2023-05-19T18:26:18.189Z,4.65
2023-05-19T18:28:45.081Z,4.85
2023-05-19T18:31:19.004Z,4.75
2023-05-19T18:33:49.592Z,4.95
2023-05-19T18:36:16.890Z,4.65
2023-05-19T18:38:43.788Z,4.22
2023-05-19T18:41:10.962Z,4.78
2023-05-19T18:43:38.793Z,4.60
2023-05-19T18:46:06.235Z,5.50
2023-05-19T18:48:33.329Z,4.80
2023-05-19T18:51:00.599Z,5.25
2023-05-19T18:53:27.489Z,6.28
2023-05-19T18:55:54.619Z,6.38
2023-05-19T18:58:21.648Z,5.90
2023-05-19T19:00:58.046Z,5.75
2023-05-19T19:03:28.634Z,6.22
2023-05-19T19:05:57.184Z,7.07
2023-05-19T19:08:25.182Z,6.82
2023-05-19T19:10:59.161Z,6.82
2023-05-19T19:13:26.053Z,6.40
2023-05-19T19:15:53.303Z,7.07
2023-05-19T19:18:20.265Z,6.50
2023-05-19T19:20:47.452Z,5.90
2023-05-19T19:23:14.314Z,6.22
2023-05-19T19:25:41.561Z,6.28
2023-05-19T19:28:08.418Z,5.38
2023-05-19T19:30:36.025Z,6.07
2023-05-19T19:33:04.623Z,6.22
2023-05-19T19:35:32.510Z,6.45
2023-05-19T19:37:59.371Z,5.95
2023-05-19T19:40:26.711Z,6.35
2023-05-19T19:42:53.591Z,6.72
2023-05-19T19:45:23.390Z,6.30
2023-05-19T19:47:51.821Z,6.38
2023-05-19T19:50:18.988Z,6.35
2023-05-19T19:52:45.954Z,6.90
2023-05-19T19:55:13.133Z,6.47
2023-05-19T19:57:39.969Z,7.05
2023-05-19T20:00:08.069Z,6.88
2023-05-19T20:02:41.014Z,6.03
2023-05-19T20:05:17.310Z,5.72
2023-05-19T20:07:44.168Z,6.43
2023-05-19T20:10:11.467Z,6.40
2023-05-19T20:12:38.340Z,6.05
2023-05-19T20:15:07.321Z,6.55
2023-05-19T20:17:34.181Z,5.57
2023-05-19T20:20:04.717Z,7.03
2023-05-19T20:22:31.556Z,6.90
2023-05-19T20:24:59.058Z,6.70
2023-05-19T20:27:25.905Z,7.15
2023-05-19T20:29:53.030Z,6.55
2023-05-19T20:32:19.903Z,6.03
2023-05-19T20:34:47.009Z,6.50
2023-05-19T20:37:13.926Z,7.15
2023-05-19T20:39:41.292Z,5.60
2023-05-19T20:42:11.142Z,7.00
2023-05-19T20:44:38.355Z,6.82
2023-05-19T20:47:08.212Z,6.53
2023-05-19T20:49:35.324Z,6.85
2023-05-19T20:52:02.295Z,6.57
2023-05-19T20:54:29.405Z,6.78
2023-05-19T20:56:56.235Z,6.32
2023-05-19T20:59:23.332Z,7.05
2023-05-19T21:01:50.195Z,6.38
2023-05-19T21:04:17.423Z,6.20
2023-05-19T21:06:44.322Z,7.00
2023-05-19T21:09:11.451Z,6.63
2023-05-19T21:11:38.379Z,7.00
2023-05-19T21:14:07.967Z,5.93
2023-05-19T21:16:38.833Z,6.35
2023-05-19T21:19:06.844Z,7.07
2023-05-19T21:21:34.256Z,6.35
2023-05-19T21:24:01.335Z,6.55
2023-05-19T21:26:28.182Z,6.53
2023-05-19T21:28:55.264Z,6.07
2023-05-19T21:31:22.102Z,6.55
2023-05-19T21:33:52.047Z,5.75
2023-05-19T21:36:18.868Z,5.80
2023-05-19T21:38:49.789Z,5.53
2023-05-19T21:41:16.888Z,6.35
2023-05-19T21:43:45.302Z,6.38
2023-05-19T21:46:12.312Z,6.00
2023-05-19T21:48:39.681Z,6.35
2023-05-19T21:51:06.884Z,6.28
2023-05-19T21:53:34.008Z,6.40
2023-05-19T21:56:01.256Z,6.75
2023-05-19T21:58:28.377Z,5.88
2023-05-19T22:00:56.059Z,6.25
2023-05-19T22:03:23.556Z,6.32
2023-05-19T22:05:51.985Z,6.35
2023-05-19T22:08:20.554Z,6.00
2023-05-19T22:10:53.593Z,6.78
2023-05-19T22:13:20.823Z,6.30
2023-05-19T22:15:47.854Z,6.57
2023-05-19T22:18:15.008Z,6.55
2023-05-19T22:20:45.664Z,6.70
2023-05-19T22:23:12.941Z,6.15
2023-05-19T22:25:39.806Z,5.50
2023-05-19T22:28:08.122Z,6.20
2023-05-19T22:30:39.304Z,6.32
2023-05-19T22:33:08.797Z,6.47
2023-05-19T22:35:35.696Z,6.05
2023-05-19T22:38:02.813Z,6.82
2023-05-19T22:40:29.740Z,5.68
2023-05-19T22:42:59.465Z,7.25
2023-05-19T22:45:29.115Z,6.50
2023-05-19T22:47:59.270Z,7.03
2023-05-19T22:50:26.689Z,7.15
2023-05-19T22:52:53.896Z,5.82
2023-05-19T22:55:21.101Z,6.68
2023-05-19T22:57:48.304Z,6.72
2023-05-19T23:00:18.971Z,6.82
2023-05-19T23:02:46.531Z,7.00
2023-05-19T23:05:13.418Z,7.05
2023-05-19T23:07:40.609Z,6.43
2023-05-19T23:10:07.801Z,6.30
2023-05-19T23:12:35.126Z,6.28
2023-05-19T23:15:04.956Z,6.43
2023-05-19T23:17:32.128Z,6.82
2023-05-19T23:20:02.579Z,5.95
2023-05-19T23:22:29.742Z,7.88
2023-05-19T23:24:56.636Z,5.80
2023-05-19T23:27:24.153Z,6.57
2023-05-19T23:29:51.468Z,7.25
2023-05-19T23:32:18.876Z,7.00
2023-05-19T23:34:47.451Z,6.65
2023-05-19T23:37:16.614Z,6.53
2023-05-19T23:39:43.502Z,7.00
2023-05-19T23:42:10.730Z,6.78
2023-05-19T23:44:37.636Z,5.75
2023-05-19T23:47:05.023Z,5.95
2023-05-19T23:49:31.926Z,6.70
2023-05-19T23:51:59.170Z,6.40
2023-05-19T23:54:26.663Z,6.93
2023-05-19T23:57:01.491Z,6.65
2023-05-19T23:59:28.272Z,6.93
